NCAR-RAP Real-Time Weather Data

Output produced by METARs form (08 May 2021  01:12 UTC)
found at http://weather.rap.ucar.edu/surface/
 
KSDB 080053Z AUTO 33025G32KT 10SM CLR 19/04 A3001 RMK AO2 PK WND 32032/0051 SLP119 T01890039
KSDB 072353Z AUTO 32017G23KT 10SM CLR 21/04 A3002 RMK AO2 SLP122 T02060039 10233 20183 58008
KSDB 072253Z AUTO 32017G25KT 10SM CLR 21/05 A3004 RMK AO2 SLP127 T02060050
KSDB 072153Z AUTO 34017G23KT 10SM CLR 21/04 A3005 RMK AO2 SLP129 T02110044
KSDB 072053Z AUTO 33009G14KT 10SM CLR 22/03 A3005 RMK AO2 SLP128 T02220033 58007
KSDB 071953Z AUTO 34008G17KT 10SM CLR 20/03 A3007 RMK AO2 SLP136 T02000033
KSDB 071853Z AUTO 34007KT 320V020 10SM CLR 20/02 A3008 RMK AO2 SLP138 T02000022
KSDB 071753Z AUTO 34010G18KT 10SM CLR 18/02 A3008 RMK AO2 SLP137 T01830022 10189 20122 53002
KSDB 071653Z AUTO 34011G19KT 10SM CLR 17/02 A3007 RMK AO2 SLP137 T01720022
KSDB 071553Z AUTO 36006KT 10SM CLR 16/03 A3007 RMK AO2 SLP136 T01610028
KSDB 071453Z AUTO VRB05KT 10SM CLR 14/03 A3007 RMK AO2 SLP137 T01440028 53003
KSDB 071353Z AUTO VRB04G15KT 10SM CLR 12/02 A3006 RMK AO2 SLP137 T01220022
KSDB 071253Z AUTO 33016G23KT 10SM CLR 13/01 A3005 RMK AO2 SLP128 T01280011